createdAt,value
2018-07-04T00:02:29.544Z,1.60
2018-07-04T00:05:10.284Z,1.50
2018-07-04T00:07:56.978Z,1.70
2018-07-04T00:10:44.043Z,1.47
2018-07-04T00:13:30.581Z,1.70
2018-07-04T00:16:17.707Z,1.93
2018-07-04T00:19:04.380Z,1.90
2018-07-04T00:21:51.190Z,1.63
2018-07-04T00:24:37.989Z,1.80
2018-07-04T00:27:24.799Z,1.67
2018-07-04T00:30:11.490Z,1.80
2018-07-04T00:32:58.330Z,1.73
2018-07-04T00:35:45.061Z,1.73
2018-07-04T00:38:31.928Z,1.50
2018-07-04T00:41:12.425Z,1.80
2018-07-04T00:43:59.224Z,2.23
2018-07-04T00:46:46.848Z,1.70
2018-07-04T00:49:33.764Z,1.70
2018-07-04T00:52:20.774Z,1.47
2018-07-04T00:55:07.281Z,1.80
2018-07-04T00:57:54.092Z,1.70
2018-07-04T01:00:40.910Z,2.20
2018-07-04T01:03:27.552Z,1.67
2018-07-04T01:06:14.341Z,1.60
2018-07-04T01:09:00.909Z,1.73
2018-07-04T01:11:47.793Z,1.50
2018-07-04T01:14:34.740Z,1.70
2018-07-04T01:17:21.551Z,1.67
2018-07-04T01:20:08.470Z,2.27
2018-07-04T01:22:55.299Z,2.00
2018-07-04T01:25:42.075Z,1.90
2018-07-04T01:28:34.219Z,1.73
2018-07-04T01:31:20.903Z,2.00
2018-07-04T01:34:08.066Z,2.10
2018-07-04T01:36:54.838Z,1.63
2018-07-04T01:39:41.784Z,1.70
2018-07-04T01:42:28.455Z,1.80
2018-07-04T01:45:15.021Z,1.70
2018-07-04T01:48:01.893Z,1.60
2018-07-04T01:50:48.425Z,1.90
2018-07-04T01:53:35.171Z,1.90
2018-07-04T01:56:22.044Z,2.23
2018-07-04T01:59:08.680Z,1.90
2018-07-04T02:01:55.951Z,1.63
2018-07-04T02:04:36.684Z,2.23
2018-07-04T02:07:17.177Z,1.77
2018-07-04T02:10:04.014Z,1.53
2018-07-04T02:12:50.980Z,1.80
2018-07-04T02:15:37.853Z,1.70
2018-07-04T02:18:24.813Z,1.90
2018-07-04T02:21:11.660Z,1.67
2018-07-04T02:23:52.947Z,1.40
2018-07-04T02:26:39.711Z,3.10
2018-07-04T02:29:26.808Z,3.43
2018-07-04T02:32:13.491Z,2.03
2018-07-04T02:35:00.725Z,3.30
2018-07-04T02:37:47.576Z,2.50
2018-07-04T02:40:34.223Z,3.80
2018-07-04T02:43:20.842Z,3.07
2018-07-04T02:46:07.610Z,3.20
2018-07-04T02:48:54.373Z,4.67
2018-07-04T02:51:41.173Z,3.37
2018-07-04T02:54:28.052Z,4.03
2018-07-04T02:57:14.913Z,2.17
2018-07-04T03:00:01.874Z,3.37
2018-07-04T03:02:48.581Z,3.07
2018-07-04T03:05:35.257Z,4.87
2018-07-04T03:08:21.858Z,3.10
2018-07-04T03:11:02.576Z,2.33
2018-07-04T03:13:49.463Z,3.70
2018-07-04T03:16:30.090Z,2.17
2018-07-04T03:19:17.476Z,3.17
2018-07-04T03:21:58.378Z,3.10
2018-07-04T03:24:45.820Z,3.17
2018-07-04T03:27:32.594Z,2.20
2018-07-04T03:30:19.272Z,2.50
2018-07-04T03:33:06.850Z,2.40
2018-07-04T03:35:53.666Z,2.23
2018-07-04T03:38:40.624Z,3.27
2018-07-04T03:41:27.258Z,3.60
2018-07-04T03:44:14.094Z,2.80
2018-07-04T03:47:01.031Z,3.07
2018-07-04T03:49:47.887Z,3.67
2018-07-04T03:52:28.617Z,3.73
2018-07-04T03:55:15.263Z,2.90
2018-07-04T03:58:01.845Z,2.90
2018-07-04T04:00:48.673Z,2.40
2018-07-04T04:03:35.549Z,3.70
2018-07-04T04:06:22.139Z,3.97
2018-07-04T04:09:08.978Z,3.53
2018-07-04T04:11:55.818Z,4.23
2018-07-04T04:14:42.400Z,3.60
2018-07-04T04:17:29.941Z,3.33
2018-07-04T04:20:16.886Z,3.20
2018-07-04T04:23:03.666Z,3.50
2018-07-04T04:25:50.480Z,3.80
2018-07-04T04:28:37.680Z,2.50
2018-07-04T04:31:24.230Z,3.10
2018-07-04T04:34:10.767Z,3.00
2018-07-04T04:36:57.462Z,3.00
2018-07-04T04:39:44.409Z,3.10
2018-07-04T04:42:31.594Z,2.40
2018-07-04T04:45:18.181Z,2.80
2018-07-04T04:48:05.114Z,3.50
2018-07-04T04:50:52.036Z,2.80
2018-07-04T04:53:38.965Z,2.80
2018-07-04T04:56:25.906Z,2.50
2018-07-04T04:59:12.589Z,2.60
2018-07-04T05:01:59.337Z,2.67
2018-07-04T05:04:46.150Z,2.37
2018-07-04T05:07:32.704Z,2.73
2018-07-04T05:10:19.634Z,3.30
2018-07-04T05:13:06.125Z,3.50
2018-07-04T05:15:52.939Z,3.40
2018-07-04T05:18:40.062Z,3.50
2018-07-04T05:21:26.710Z,2.97
2018-07-04T05:24:13.524Z,2.43
2018-07-04T05:27:01.609Z,2.60
2018-07-04T05:29:48.886Z,2.97
2018-07-04T05:32:35.711Z,2.47
2018-07-04T05:35:22.556Z,2.10
2018-07-04T05:38:09.160Z,2.47
2018-07-04T05:40:55.848Z,2.50
2018-07-04T05:43:43.105Z,2.57
2018-07-04T05:46:30.457Z,2.47
2018-07-04T05:49:17.369Z,2.80
2018-07-04T05:51:58.013Z,2.97
2018-07-04T05:54:44.623Z,2.73
2018-07-04T05:57:31.473Z,3.00
2018-07-04T06:00:18.369Z,2.90
2018-07-04T06:03:05.241Z,2.97
2018-07-04T06:05:52.058Z,2.67
2018-07-04T06:08:38.941Z,2.63
2018-07-04T06:11:26.314Z,2.50
2018-07-04T06:14:13.036Z,2.60
2018-07-04T06:17:01.530Z,2.87
2018-07-04T06:19:48.385Z,2.80
2018-07-04T06:22:35.231Z,2.60
2018-07-04T06:25:21.933Z,2.50
2018-07-04T06:28:09.249Z,2.60
2018-07-04T06:30:56.069Z,2.23
2018-07-04T06:33:42.725Z,2.53
2018-07-04T06:36:30.488Z,3.07
2018-07-04T06:39:05.229Z,2.40
2018-07-04T06:41:33.482Z,2.53
2018-07-04T06:44:02.399Z,2.10
2018-07-04T06:46:30.300Z,2.10
2018-07-04T06:48:58.388Z,2.10
2018-07-04T06:51:26.268Z,2.70
2018-07-04T06:53:54.570Z,2.60
2018-07-04T06:56:22.553Z,2.60
2018-07-04T06:58:50.766Z,2.10
2018-07-04T07:01:18.621Z,2.90
2018-07-04T07:03:59.115Z,2.87
2018-07-04T07:06:45.797Z,2.30
2018-07-04T07:09:32.996Z,2.63
2018-07-04T07:12:19.572Z,2.50
2018-07-04T07:15:06.618Z,2.30
2018-07-04T07:17:53.448Z,2.53
2018-07-04T07:20:40.882Z,2.77
2018-07-04T07:23:28.040Z,2.10
2018-07-04T07:26:14.734Z,2.33
2018-07-04T07:28:55.982Z,2.73
2018-07-04T07:31:43.112Z,4.30
2018-07-04T07:34:29.717Z,2.83
2018-07-04T07:37:16.557Z,3.00
2018-07-04T07:40:03.266Z,2.57
2018-07-04T07:42:50.579Z,2.17
2018-07-04T07:45:31.223Z,2.50
2018-07-04T07:48:18.067Z,2.30
2018-07-04T07:51:04.848Z,2.87
2018-07-04T07:53:51.891Z,2.50
2018-07-04T07:56:39.392Z,2.50
2018-07-04T07:59:26.527Z,2.37
2018-07-04T08:02:13.223Z,2.33
2018-07-04T08:05:00.050Z,2.30
2018-07-04T08:07:46.893Z,2.27
2018-07-04T08:10:33.623Z,2.13
2018-07-04T08:13:20.353Z,2.43
2018-07-04T08:16:07.223Z,2.27
2018-07-04T08:18:54.054Z,2.20
2018-07-04T08:21:40.689Z,2.43
2018-07-04T08:24:27.507Z,2.20
2018-07-04T08:27:14.385Z,2.30
2018-07-04T08:30:01.185Z,2.60
2018-07-04T08:32:47.944Z,3.00
2018-07-04T08:35:34.874Z,2.40
2018-07-04T08:38:21.799Z,2.77
2018-07-04T08:41:10.129Z,2.00
2018-07-04T08:43:56.860Z,2.00
2018-07-04T08:46:43.579Z,2.07
2018-07-04T08:49:30.560Z,2.20
2018-07-04T08:52:17.493Z,2.10
2018-07-04T08:55:04.343Z,2.20
2018-07-04T08:57:51.123Z,2.30
2018-07-04T09:00:37.753Z,2.03
2018-07-04T09:03:24.567Z,2.57
2018-07-04T09:06:11.223Z,1.90
2018-07-04T09:08:59.051Z,2.10
2018-07-04T09:11:46.956Z,1.67
2018-07-04T09:14:35.471Z,2.20
2018-07-04T09:17:22.412Z,2.27
2018-07-04T09:20:09.523Z,2.40
2018-07-04T09:22:56.790Z,2.50
2018-07-04T09:25:43.598Z,2.07
2018-07-04T09:28:30.063Z,2.27
2018-07-04T09:31:17.353Z,1.90
2018-07-04T09:34:04.582Z,2.13
2018-07-04T09:36:51.817Z,2.40
2018-07-04T09:39:32.359Z,2.40
2018-07-04T09:42:19.083Z,2.10
2018-07-04T09:45:06.053Z,3.00
2018-07-04T09:47:52.906Z,2.10
2018-07-04T09:50:39.496Z,2.70
2018-07-04T09:53:20.175Z,2.20
2018-07-04T09:56:07.259Z,2.70
2018-07-04T09:58:54.199Z,2.10
2018-07-04T10:01:40.746Z,2.33
2018-07-04T10:04:27.551Z,2.47
2018-07-04T10:07:15.278Z,1.90
2018-07-04T10:10:02.235Z,2.57
2018-07-04T10:12:43.596Z,2.40
2018-07-04T10:15:30.292Z,2.70
2018-07-04T10:18:11.528Z,2.00
2018-07-04T10:20:58.753Z,2.20
2018-07-04T10:23:46.078Z,2.73
2018-07-04T10:26:32.776Z,2.97
2018-07-04T10:29:13.555Z,1.90
2018-07-04T10:32:00.426Z,2.10
2018-07-04T10:34:41.061Z,2.10
2018-07-04T10:37:27.750Z,2.20
2018-07-04T10:40:14.760Z,2.30
2018-07-04T10:43:01.397Z,2.60
2018-07-04T10:45:48.215Z,2.70
2018-07-04T10:48:35.093Z,2.93
2018-07-04T10:51:22.012Z,1.80
2018-07-04T10:54:08.907Z,1.67
2018-07-04T10:56:55.519Z,1.70
2018-07-04T10:59:36.407Z,2.70
2018-07-04T11:02:24.536Z,2.47
2018-07-04T11:05:11.340Z,2.33
2018-07-04T11:07:52.099Z,2.00
2018-07-04T11:10:39.189Z,2.20
2018-07-04T11:13:25.848Z,1.90
2018-07-04T11:16:12.639Z,2.03
2018-07-04T11:18:59.214Z,1.80
2018-07-04T11:21:46.142Z,1.60
2018-07-04T11:24:33.057Z,1.80
2018-07-04T11:27:19.905Z,1.70
2018-07-04T11:30:06.520Z,1.73
2018-07-04T11:32:53.325Z,2.07
2018-07-04T11:35:33.898Z,6.17
2018-07-04T11:38:21.232Z,2.10
2018-07-04T11:41:01.820Z,1.97
2018-07-04T11:43:48.559Z,1.90
2018-07-04T11:46:22.932Z,2.10
2018-07-04T11:48:51.090Z,1.83
2018-07-04T11:51:18.943Z,2.10
2018-07-04T11:53:46.968Z,1.60
2018-07-04T11:56:15.017Z,1.70
2018-07-04T11:58:43.198Z,2.00
2018-07-04T12:01:11.669Z,2.07
2018-07-04T12:03:45.927Z,2.10
2018-07-04T12:06:32.187Z,2.00
2018-07-04T12:09:07.360Z,2.10
2018-07-04T12:11:36.160Z,1.87
2018-07-04T12:14:04.912Z,1.53
2018-07-04T12:16:32.839Z,2.83
2018-07-04T12:19:01.152Z,1.60
2018-07-04T12:21:29.082Z,1.83
2018-07-04T12:23:57.115Z,1.80
2018-07-04T12:26:25.093Z,1.70
2018-07-04T12:28:53.021Z,1.83
2018-07-04T12:31:21.212Z,1.90
2018-07-04T12:33:49.084Z,1.80
2018-07-04T12:36:17.857Z,1.80
2018-07-04T12:38:49.013Z,1.97
2018-07-04T12:41:17.009Z,2.07
2018-07-04T12:43:45.061Z,2.20
2018-07-04T12:46:12.929Z,2.23
2018-07-04T12:48:41.538Z,1.50
2018-07-04T12:51:09.738Z,1.90
2018-07-04T12:53:38.304Z,1.40
2018-07-04T12:56:18.926Z,1.83
2018-07-04T12:59:06.350Z,1.60
2018-07-04T13:01:53.141Z,1.53
2018-07-04T13:04:33.803Z,2.03
2018-07-04T13:07:20.630Z,1.60
2018-07-04T13:10:07.592Z,5.87
2018-07-04T13:12:54.406Z,2.10
2018-07-04T13:15:41.948Z,1.80
2018-07-04T13:18:28.703Z,1.90
2018-07-04T13:21:15.712Z,1.83
2018-07-04T13:24:02.370Z,1.40
2018-07-04T13:26:49.067Z,1.60
2018-07-04T13:29:36.010Z,1.70
2018-07-04T13:32:22.593Z,1.60
2018-07-04T13:35:09.401Z,1.90
2018-07-04T13:37:56.055Z,1.90
2018-07-04T13:40:43.555Z,1.87
2018-07-04T13:43:30.274Z,1.60
2018-07-04T13:46:20.416Z,1.77
2018-07-04T13:49:07.534Z,2.00
2018-07-04T13:51:54.367Z,1.63
2018-07-04T13:54:41.810Z,2.77
2018-07-04T13:57:29.398Z,1.80
2018-07-04T14:00:16.130Z,1.80
2018-07-04T14:03:02.632Z,1.83
2018-07-04T14:05:50.101Z,1.67
2018-07-04T14:08:36.771Z,1.70
2018-07-04T14:11:23.705Z,1.93
2018-07-04T14:14:11.498Z,1.77
2018-07-04T14:16:58.258Z,1.73
2018-07-04T14:19:39.572Z,1.70
2018-07-04T14:22:26.378Z,2.00
2018-07-04T14:25:13.170Z,1.90
2018-07-04T14:27:59.820Z,2.60
2018-07-04T14:30:47.160Z,2.00
2018-07-04T14:33:33.972Z,2.60
2018-07-04T14:36:20.766Z,2.10
2018-07-04T14:39:07.467Z,2.20
2018-07-04T14:41:55.149Z,1.70
2018-07-04T14:44:41.765Z,1.80
2018-07-04T14:47:28.554Z,2.20
2018-07-04T14:50:09.329Z,2.20
2018-07-04T14:52:56.659Z,2.10
2018-07-04T14:55:43.440Z,2.10
2018-07-04T14:58:30.279Z,2.47
2018-07-04T15:01:17.083Z,2.40
2018-07-04T15:04:03.905Z,2.00
2018-07-04T15:06:50.562Z,2.30
2018-07-04T15:09:37.691Z,5.10
2018-07-04T15:12:24.452Z,2.30
2018-07-04T15:15:10.890Z,3.73
2018-07-04T15:17:57.727Z,2.20
2018-07-04T15:20:38.440Z,2.53
2018-07-04T15:23:25.091Z,2.03
2018-07-04T15:26:11.721Z,2.27
2018-07-04T15:28:52.332Z,2.50
2018-07-04T15:31:38.814Z,2.10
2018-07-04T15:34:26.005Z,1.80
2018-07-04T15:37:12.780Z,2.20
2018-07-04T15:39:59.464Z,1.80
2018-07-04T15:42:46.106Z,2.10
2018-07-04T15:45:32.890Z,2.00
2018-07-04T15:48:19.686Z,2.43
2018-07-04T15:51:06.299Z,1.70
2018-07-04T15:53:52.939Z,2.20
2018-07-04T15:56:40.958Z,2.53
2018-07-04T15:59:27.969Z,2.60
2018-07-04T16:02:14.888Z,2.30
2018-07-04T16:05:01.587Z,2.27
2018-07-04T16:07:48.385Z,2.03
2018-07-04T16:10:34.840Z,2.80
2018-07-04T16:13:21.670Z,2.97
2018-07-04T16:16:08.289Z,2.20
2018-07-04T16:18:55.017Z,2.77
2018-07-04T16:21:41.779Z,2.00
2018-07-04T16:24:22.403Z,2.23
2018-07-04T16:27:08.784Z,1.90
2018-07-04T16:29:55.718Z,2.20
2018-07-04T16:32:42.566Z,2.40
2018-07-04T16:35:29.817Z,2.30
2018-07-04T16:38:16.657Z,4.10
2018-07-04T16:41:03.691Z,2.30
2018-07-04T16:43:50.718Z,2.00
2018-07-04T16:46:37.596Z,2.50
2018-07-04T16:49:24.234Z,1.93
2018-07-04T16:52:11.138Z,2.17
2018-07-04T16:54:57.921Z,2.03
2018-07-04T16:57:44.947Z,2.00
2018-07-04T17:00:31.551Z,2.53
2018-07-04T17:03:12.093Z,2.00
2018-07-04T17:05:59.052Z,1.67
2018-07-04T17:08:45.788Z,2.53
2018-07-04T17:11:32.603Z,2.30
2018-07-04T17:14:19.950Z,3.77
2018-07-04T17:17:07.268Z,2.57
2018-07-04T17:19:53.796Z,4.47
2018-07-04T17:22:40.557Z,3.00
2018-07-04T17:25:21.309Z,2.17
2018-07-04T17:28:08.201Z,2.30
2018-07-04T17:30:54.881Z,3.43
2018-07-04T17:33:41.610Z,2.37
2018-07-04T17:36:28.603Z,2.43
2018-07-04T17:39:15.363Z,2.20
2018-07-04T17:42:01.950Z,2.30
2018-07-04T17:44:42.952Z,2.00
2018-07-04T17:47:29.765Z,2.07
2018-07-04T17:50:16.251Z,2.30
2018-07-04T17:53:02.946Z,2.23
2018-07-04T17:55:49.586Z,2.10
2018-07-04T17:58:37.648Z,2.00
2018-07-04T18:01:24.333Z,2.37
2018-07-04T18:04:11.190Z,2.40
2018-07-04T18:06:52.357Z,1.80
2018-07-04T18:10:21.265Z,1.90
2018-07-04T18:21:27.273Z,2.50
2018-07-04T18:24:14.148Z,2.60
2018-07-04T18:27:01.248Z,3.10
2018-07-04T18:29:48.014Z,3.10
2018-07-04T18:32:35.087Z,3.47
2018-07-04T18:35:15.754Z,3.40
2018-07-04T18:38:04.150Z,3.07
2018-07-04T18:40:51.428Z,2.40
2018-07-04T18:43:38.365Z,3.17
2018-07-04T18:46:24.871Z,2.67
2018-07-04T18:49:05.673Z,3.00
2018-07-04T18:51:52.442Z,3.43
2018-07-04T18:54:38.976Z,3.37
2018-07-04T18:57:26.306Z,3.03
2018-07-04T19:00:13.317Z,3.27
2018-07-04T19:03:00.164Z,3.63
2018-07-04T19:05:48.909Z,3.33
2018-07-04T19:08:35.511Z,3.80
2018-07-04T19:11:22.485Z,4.13
2018-07-04T19:14:09.053Z,4.10
2018-07-04T19:16:55.803Z,3.80
2018-07-04T19:19:36.395Z,5.80
2018-07-04T19:22:23.094Z,3.53
2018-07-04T19:25:09.598Z,3.57
2018-07-04T19:27:56.846Z,3.10
2018-07-04T19:30:43.451Z,3.67
2018-07-04T19:33:31.061Z,3.37
2018-07-04T19:36:17.785Z,4.07
2018-07-04T19:39:05.739Z,3.87
2018-07-04T19:41:53.487Z,3.80
2018-07-04T19:44:40.524Z,5.33
2018-07-04T19:47:27.054Z,5.13
2018-07-04T19:50:14.091Z,5.97
2018-07-04T19:53:01.301Z,5.40
2018-07-04T19:55:47.981Z,5.53
2018-07-04T19:58:28.857Z,5.93
2018-07-04T20:01:15.578Z,4.27
2018-07-04T20:04:02.595Z,3.87
2018-07-04T20:06:49.209Z,3.70
2018-07-04T20:09:36.640Z,4.00
2018-07-04T20:12:23.387Z,3.67
2018-07-04T20:15:04.131Z,3.57
2018-07-04T21:01:52.300Z,6.93
2018-07-04T21:04:38.937Z,4.73
2018-07-04T21:07:25.535Z,4.30
2018-07-04T21:10:12.767Z,4.70
2018-07-04T21:12:59.579Z,5.87
2018-07-04T21:15:46.393Z,6.03
2018-07-04T21:18:33.274Z,6.57
2018-07-04T21:21:19.975Z,5.17
2018-07-04T21:24:06.571Z,5.63
2018-07-04T21:26:47.322Z,5.20
2018-07-04T21:29:34.297Z,5.17
2018-07-04T21:32:21.120Z,5.53
2018-07-04T21:35:01.857Z,5.40
2018-07-04T21:37:48.360Z,4.73
2018-07-04T21:40:35.268Z,5.10
2018-07-04T21:43:21.911Z,5.47
2018-07-04T21:46:08.846Z,6.13
2018-07-04T21:48:56.165Z,5.57
2018-07-04T21:51:43.092Z,4.83
2018-07-04T21:54:29.764Z,6.07
2018-07-04T21:57:16.696Z,4.83
2018-07-04T22:00:03.573Z,4.83
2018-07-04T22:02:51.063Z,5.30
2018-07-04T22:05:37.983Z,5.83
2018-07-04T22:08:19.235Z,5.80
2018-07-04T22:11:05.996Z,6.97
2018-07-04T22:13:53.019Z,5.20
2018-07-04T22:16:39.972Z,5.10
2018-07-04T22:19:26.895Z,5.33
2018-07-04T22:22:07.690Z,6.03
2018-07-04T22:24:54.184Z,5.00
2018-07-04T22:27:40.918Z,5.60
2018-07-04T22:30:28.837Z,5.87
2018-07-04T22:33:10.419Z,5.23
2018-07-04T22:35:58.591Z,5.30
2018-07-04T22:38:45.336Z,5.30
2018-07-04T22:41:33.618Z,5.87
2018-07-04T22:44:20.289Z,5.40
2018-07-04T22:47:07.588Z,5.97
2018-07-04T22:49:49.780Z,7.13
2018-07-04T22:52:39.041Z,6.83
2018-07-04T22:55:25.874Z,7.00
2018-07-04T22:58:23.272Z,6.43
2018-07-04T23:01:07.797Z,6.67
2018-07-04T23:03:56.082Z,6.10
2018-07-04T23:06:45.636Z,5.00
2018-07-04T23:09:40.576Z,4.40
2018-07-04T23:12:27.703Z,4.80
2018-07-04T23:15:14.403Z,4.97
2018-07-04T23:18:01.264Z,5.13
2018-07-04T23:20:47.970Z,5.40
2018-07-04T23:23:34.917Z,4.97
2018-07-04T23:26:21.770Z,5.40
2018-07-04T23:29:08.600Z,6.67
2018-07-04T23:31:49.311Z,6.23
2018-07-04T23:34:35.855Z,6.33
2018-07-04T23:37:22.605Z,6.40
2018-07-04T23:40:09.306Z,5.43
2018-07-04T23:42:56.550Z,6.07
2018-07-04T23:45:43.161Z,5.60
2018-07-04T23:48:30.265Z,4.70
2018-07-04T23:51:17.515Z,4.67
2018-07-04T23:54:04.340Z,4.90
2018-07-04T23:56:52.182Z,5.57
2018-07-04T23:59:38.652Z,4.70
